Time;durP1;ratioP1;P1;durP2;ratioP2;P2;SDS_P1;SDS_P2;PMS_P1;PMS_P2;Temp;Humidity;BMP_temperature;BMP_pressure;BME280_temperature;BME280_humidity;BME280_pressure;Samples;Min_cycle;Max_cycle;Signal;HPM_P1;HPM_P2
2023/04/10 00:01:09;;;;;;;6.50;5.57;;;7.50;99.90;;;;;;6275694;28;20477;-63
2023/04/10 00:04:12;;;;;;;6.30;5.57;;;7.50;99.90;;;;;;6275878;28;20474;-63
2023/04/10 00:07:16;;;;;;;7.33;6.57;;;7.50;99.90;;;;;;6271273;28;20538;-64
2023/04/10 00:10:19;;;;;;;5.83;5.33;;;7.50;99.90;;;;;;6262296;28;20474;-63
2023/04/10 00:13:22;;;;;;;7.50;6.80;;;7.50;99.90;;;;;;6275805;28;20769;-63
2023/04/10 00:16:27;;;;;;;6.57;5.83;;;7.50;99.90;;;;;;6275652;28;20496;-63
2023/04/10 00:19:30;;;;;;;7.03;6.20;;;7.50;99.90;;;;;;6275570;28;20916;-63
2023/04/10 00:22:34;;;;;;;7.70;6.53;;;7.50;99.90;;;;;;6275570;28;20438;-63
2023/04/10 00:25:37;;;;;;;6.83;6.17;;;7.40;99.90;;;;;;6275225;28;20482;-63
2023/04/10 00:28:40;;;;;;;5.70;5.20;;;7.50;99.90;;;;;;6275318;28;20462;-63
2023/04/10 00:31:44;;;;;;;5.67;5.17;;;7.50;99.90;;;;;;6275252;28;20481;-63
2023/04/10 00:34:48;;;;;;;6.07;5.47;;;7.40;99.90;;;;;;6274848;28;20470;-64
2023/04/10 00:37:53;;;;;;;5.63;5.10;;;7.40;99.90;;;;;;6275082;28;20553;-63
2023/04/10 00:40:56;;;;;;;5.70;5.20;;;7.40;99.90;;;;;;6274876;28;20798;-63
2023/04/10 00:43:59;;;;;;;5.60;5.10;;;7.40;99.90;;;;;;6274635;28;20470;-64
2023/04/10 00:47:04;;;;;;;5.53;4.93;;;7.40;99.90;;;;;;6274871;28;20485;-63
2023/04/10 00:50:08;;;;;;;6.60;6.00;;;7.40;99.90;;;;;;6274928;28;20478;-63
2023/04/10 00:53:11;;;;;;;6.37;5.50;;;7.40;99.90;;;;;;6275223;28;20465;-64
2023/04/10 00:56:15;;;;;;;7.30;6.67;;;7.40;99.90;;;;;;6274824;28;20478;-62
2023/04/10 00:59:18;;;;;;;5.73;5.13;;;7.40;99.90;;;;;;6274557;28;20826;-62
2023/04/10 01:02:22;;;;;;;5.90;5.27;;;7.40;99.90;;;;;;6274940;28;20473;-62
2023/04/10 01:05:29;;;;;;;6.33;5.27;;;7.40;99.90;;;;;;6274417;28;20470;-63
2023/04/10 01:08:40;;;;;;;5.70;5.00;;;7.40;99.90;;;;;;6274549;28;20802;-63
2023/04/10 01:11:51;;;;;;;6.47;5.47;;;7.40;99.90;;;;;;6274666;28;20482;-63
2023/04/10 01:15:02;;;;;;;6.83;6.13;;;7.40;99.90;;;;;;6274304;28;20474;-62
2023/04/10 01:18:16;;;;;;;7.67;6.00;;;7.40;99.90;;;;;;6274253;28;20474;-63
2023/04/10 01:21:22;;;;;;;5.70;5.20;;;7.40;99.90;;;;;;6274054;28;20482;-63
2023/04/10 01:24:42;;;;;;;7.30;6.10;;;7.40;99.90;;;;;;6274195;28;20837;-63
2023/04/10 01:28:00;;;;;;;5.40;4.90;;;7.40;99.90;;;;;;6274553;28;20481;-62
2023/04/10 01:31:08;;;;;;;5.70;5.10;;;7.40;99.90;;;;;;6274234;28;20492;-63
2023/04/10 01:34:17;;;;;;;6.03;5.43;;;7.30;99.90;;;;;;6278094;28;20469;-63
2023/04/10 01:37:23;;;;;;;6.70;5.97;;;7.30;99.90;;;;;;6278223;28;20478;-63
2023/04/10 01:40:27;;;;;;;6.23;5.50;;;7.30;99.90;;;;;;6279368;28;20457;-63
2023/04/10 01:43:32;;;;;;;6.93;5.20;;;7.20;99.90;;;;;;6279091;28;20762;-63
2023/04/10 01:46:38;;;;;;;6.07;5.33;;;7.20;99.90;;;;;;6279325;28;20462;-63
2023/04/10 01:49:43;;;;;;;6.70;6.00;;;7.10;99.90;;;;;;6279376;28;20473;-62
2023/04/10 01:52:47;;;;;;;6.80;6.20;;;7.10;99.90;;;;;;6279544;28;20476;-63
2023/04/10 01:55:52;;;;;;;7.30;6.20;;;7.00;99.90;;;;;;6278701;28;20972;-63
2023/04/10 01:58:56;;;;;;;6.67;6.00;;;6.90;99.90;;;;;;6279097;28;20462;-63
2023/04/10 02:02:01;;;;;;;7.00;6.20;;;6.90;99.90;;;;;;6278902;28;20477;-63
2023/04/10 02:05:05;;;;;;;6.60;6.00;;;6.80;99.90;;;;;;6278651;28;20480;-63
2023/04/10 02:08:15;;;;;;;6.67;5.50;;;6.70;99.90;;;;;;6278993;28;20469;-63
2023/04/10 02:11:36;;;;;;;6.73;6.13;;;6.60;99.90;;;;;;6278818;28;20516;-63
2023/04/10 02:14:44;;;;;;;8.10;6.93;;;6.60;99.90;;;;;;6269587;28;20791;-63
2023/04/10 02:17:50;;;;;;;6.73;5.30;;;6.50;99.90;;;;;;6278531;28;20972;-63
2023/04/10 02:20:55;;;;;;;5.20;4.80;;;6.50;99.90;;;;;;6278316;28;20465;-63
2023/04/10 02:24:01;;;;;;;6.70;6.00;;;6.40;99.90;;;;;;6278256;28;20539;-63
2023/04/10 02:27:04;;;;;;;7.27;6.57;;;6.30;99.90;;;;;;6278232;28;20596;-63
2023/04/10 02:30:08;;;;;;;5.70;5.20;;;6.20;99.90;;;;;;6278239;28;20469;-63
2023/04/10 02:33:13;;;;;;;8.83;6.43;;;6.20;99.90;;;;;;6277897;28;20473;-63
2023/04/10 02:36:16;;;;;;;6.50;5.83;;;6.20;99.90;;;;;;6277286;28;20474;-63
2023/04/10 02:39:19;;;;;;;5.77;5.17;;;6.10;99.90;;;;;;6277487;28;20966;-63
2023/04/10 02:42:22;;;;;;;5.50;5.00;;;6.00;99.90;;;;;;6277406;28;20968;-63
2023/04/10 02:45:25;;;;;;;5.90;5.30;;;6.00;99.90;;;;;;6276461;28;20778;-63
2023/04/10 02:48:29;;;;;;;6.63;5.43;;;5.90;99.90;;;;;;6277898;28;20484;-63
2023/04/10 02:51:35;;;;;;;6.33;5.83;;;5.90;99.90;;;;;;6277836;28;20520;-63
2023/04/10 02:54:38;;;;;;;6.40;5.80;;;5.80;99.90;;;;;;6277312;28;20486;-63
2023/04/10 02:57:41;;;;;;;6.60;5.93;;;5.80;99.90;;;;;;6277571;28;20485;-63
2023/04/10 03:00:48;;;;;;;6.73;5.40;;;5.80;99.90;;;;;;6277329;28;20470;-63
2023/04/10 03:03:53;;;;;;;6.90;5.53;;;5.70;99.90;;;;;;6277014;28;20474;-63
2023/04/10 03:06:58;;;;;;;5.97;5.47;;;5.70;99.90;;;;;;6277508;28;20466;-64
2023/04/10 03:10:01;;;;;;;6.53;5.73;;;5.70;99.90;;;;;;6277303;28;20477;-63
2023/04/10 03:13:04;;;;;;;6.00;5.33;;;5.60;99.90;;;;;;6277403;28;20485;-64
2023/04/10 03:16:08;;;;;;;6.33;5.73;;;5.50;99.90;;;;;;6276713;28;20489;-63
2023/04/10 03:19:12;;;;;;;6.87;5.83;;;5.50;99.90;;;;;;6272305;28;20493;-64
2023/04/10 03:22:15;;;;;;;5.47;4.97;;;5.50;99.90;;;;;;6276614;28;20932;-64
2023/04/10 03:25:18;;;;;;;7.83;6.23;;;5.50;99.90;;;;;;6276627;28;20490;-63
2023/04/10 03:28:21;;;;;;;6.07;5.33;;;5.40;99.90;;;;;;6276848;28;20770;-63
2023/04/10 03:31:25;;;;;;;6.60;4.90;;;5.30;99.90;;;;;;6276872;28;20457;-63
2023/04/10 03:34:29;;;;;;;8.37;5.83;;;5.30;99.90;;;;;;6276638;28;20476;-63
2023/04/10 03:37:32;;;;;;;6.37;5.03;;;5.30;99.90;;;;;;6276944;28;20481;-63
2023/04/10 03:40:36;;;;;;;6.10;5.60;;;5.20;99.90;;;;;;6276334;28;20906;-63
2023/04/10 03:43:40;;;;;;;5.57;5.03;;;5.10;99.90;;;;;;6276807;28;20465;-63
2023/04/10 03:46:43;;;;;;;6.07;5.47;;;5.10;99.90;;;;;;6276594;28;20470;-63
2023/04/10 03:49:47;;;;;;;7.67;6.23;;;5.10;99.90;;;;;;6276219;28;20759;-62
2023/04/10 03:52:51;;;;;;;6.87;5.40;;;5.00;99.90;;;;;;6276795;28;20473;-64
2023/04/10 03:55:54;;;;;;;6.07;5.57;;;5.00;99.90;;;;;;6275515;28;20976;-63
2023/04/10 03:58:57;;;;;;;6.90;5.37;;;5.00;99.90;;;;;;6276406;28;20470;-63
2023/04/10 04:02:00;;;;;;;7.27;5.73;;;4.90;99.90;;;;;;6275772;28;20481;-63
2023/04/10 04:05:05;;;;;;;6.47;5.87;;;4.90;99.90;;;;;;6275749;28;20502;-63
2023/04/10 04:08:09;;;;;;;6.77;5.70;;;4.90;99.90;;;;;;6275577;28;20903;-63
2023/04/10 04:11:12;;;;;;;8.10;5.47;;;4.90;99.90;;;;;;6276244;28;20477;-63
2023/04/10 04:14:15;;;;;;;5.63;5.03;;;4.90;99.90;;;;;;6275797;28;20474;-63
2023/04/10 04:17:18;;;;;;;6.83;6.00;;;4.80;99.90;;;;;;6275686;28;20474;-63
2023/04/10 04:20:23;;;;;;;6.60;6.00;;;4.80;99.90;;;;;;6275257;28;20838;-63
2023/04/10 04:23:26;;;;;;;6.30;5.50;;;4.80;99.90;;;;;;6262271;28;20482;-63
2023/04/10 04:26:30;;;;;;;7.50;5.80;;;4.80;99.90;;;;;;6274961;28;20478;-63
2023/04/10 04:29:33;;;;;;;7.07;5.97;;;4.80;99.90;;;;;;6274937;28;20465;-63
2023/04/10 04:32:36;;;;;;;6.10;5.60;;;4.70;99.90;;;;;;6275242;28;20520;-63
2023/04/10 04:35:41;;;;;;;5.93;5.33;;;4.70;99.90;;;;;;6274960;28;20537;-62
2023/04/10 04:38:44;;;;;;;7.87;5.50;;;4.70;99.90;;;;;;6275053;28;20957;-63
2023/04/10 04:41:47;;;;;;;8.23;6.23;;;4.70;99.90;;;;;;6274900;28;20470;-63
2023/04/10 04:44:50;;;;;;;5.43;4.93;;;4.60;99.90;;;;;;6274782;28;20980;-63
2023/04/10 04:47:53;;;;;;;6.47;5.60;;;4.60;99.90;;;;;;6274392;28;20466;-63
2023/04/10 04:50:58;;;;;;;6.40;5.80;;;4.60;99.90;;;;;;6275325;28;20505;-63
2023/04/10 04:54:01;;;;;;;7.43;6.70;;;4.60;99.90;;;;;;6274959;28;20470;-63
2023/04/10 04:57:04;;;;;;;7.43;6.57;;;4.70;99.90;;;;;;6274769;28;20968;-63
2023/04/10 05:00:08;;;;;;;6.30;5.70;;;4.70;99.90;;;;;;6274525;28;20478;-63
2023/04/10 05:03:11;;;;;;;9.10;5.70;;;4.70;99.90;;;;;;6274529;28;20501;-63
2023/04/10 05:06:17;;;;;;;8.60;6.50;;;4.80;99.90;;;;;;6273866;28;20488;-63
2023/04/10 05:09:20;;;;;;;9.10;7.20;;;4.80;99.90;;;;;;6274221;28;20792;-63
2023/04/10 05:12:23;;;;;;;7.33;6.63;;;4.90;99.90;;;;;;6274454;28;20779;-63
2023/04/10 05:15:27;;;;;;;7.43;6.37;;;4.90;99.90;;;;;;6274226;28;20474;-63
2023/04/10 05:18:30;;;;;;;8.30;7.47;;;4.90;99.90;;;;;;6274367;28;20780;-63
2023/04/10 05:21:36;;;;;;;5.77;5.27;;;4.90;99.90;;;;;;6274375;28;20524;-63
2023/04/10 05:24:39;;;;;;;8.50;6.93;;;5.00;99.90;;;;;;6274704;28;20556;-63
2023/04/10 05:27:42;;;;;;;7.17;6.17;;;5.00;99.90;;;;;;6265188;28;20802;-63
2023/04/10 05:30:45;;;;;;;7.27;6.53;;;5.10;99.90;;;;;;6274034;28;20798;-63
2023/04/10 05:33:48;;;;;;;9.20;7.10;;;5.00;99.90;;;;;;6273990;28;20466;-63
2023/04/10 05:36:53;;;;;;;7.30;6.53;;;5.10;99.90;;;;;;6274395;28;20483;-63
2023/04/10 05:39:59;;;;;;;6.80;6.10;;;5.10;99.90;;;;;;6274243;28;20565;-63
2023/04/10 05:43:02;;;;;;;7.43;6.73;;;5.20;99.90;;;;;;6274383;28;20470;-64
2023/04/10 05:46:06;;;;;;;7.57;6.67;;;5.20;99.90;;;;;;6273901;28;20478;-63
2023/04/10 05:49:09;;;;;;;8.27;7.20;;;5.30;99.90;;;;;;6274197;28;20600;-63
2023/04/10 05:52:14;;;;;;;8.73;7.83;;;5.40;99.90;;;;;;6273805;28;20485;-63
2023/04/10 05:55:17;;;;;;;8.80;7.53;;;5.50;99.90;;;;;;6274086;28;20485;-64
2023/04/10 05:58:20;;;;;;;7.40;6.70;;;5.70;99.90;;;;;;6273664;28;20819;-63
2023/04/10 06:01:23;;;;;;;8.10;7.10;;;5.90;99.90;;;;;;6273988;28;20462;-64
2023/04/10 06:04:26;;;;;;;8.27;7.47;;;6.20;99.90;;;;;;6273549;28;20493;-63
2023/04/10 06:07:32;;;;;;;9.20;7.40;;;6.80;99.90;;;;;;6273918;28;20730;-64
2023/04/10 06:10:35;;;;;;;7.60;6.93;;;7.90;99.90;;;;;;6274358;28;20429;-64
2023/04/10 06:13:38;;;;;;;8.63;7.23;;;9.30;99.90;;;;;;6273533;28;20446;-64
2023/04/10 06:16:42;;;;;;;8.00;7.00;;;10.80;99.90;;;;;;6273923;28;20814;-63
2023/04/10 06:19:45;;;;;;;8.27;7.47;;;11.80;97.50;;;;;;6276496;28;20469;-64
2023/04/10 06:22:49;;;;;;;6.93;6.17;;;12.50;95.00;;;;;;6278503;28;20980;-63
2023/04/10 06:25:52;;;;;;;8.03;7.03;;;13.30;93.10;;;;;;6278700;28;20481;-63
2023/04/10 06:28:55;;;;;;;7.10;6.40;;;14.00;90.80;;;;;;6269362;28;20523;-63
2023/04/10 06:31:59;;;;;;;8.73;7.70;;;14.90;88.80;;;;;;6278609;28;20466;-63
2023/04/10 06:35:02;;;;;;;6.73;6.13;;;16.10;84.10;;;;;;6277888;28;20466;-64
2023/04/10 06:38:07;;;;;;;7.30;6.67;;;16.90;78.90;;;;;;6278118;28;20998;-64
2023/04/10 06:41:10;;;;;;;8.10;7.30;;;17.80;72.80;;;;;;6277870;28;20823;-64
2023/04/10 06:44:13;;;;;;;8.77;6.90;;;18.60;69.20;;;;;;6278080;28;20490;-64
2023/04/10 06:47:17;;;;;;;8.00;7.27;;;19.50;64.20;;;;;;6277661;28;20481;-64
2023/04/10 06:50:20;;;;;;;7.10;6.40;;;20.20;58.70;;;;;;6277490;28;20246;-64
2023/04/10 06:53:25;;;;;;;8.00;7.30;;;20.90;55.40;;;;;;6277878;28;20231;-64
2023/04/10 06:56:28;;;;;;;7.90;7.13;;;21.20;52.00;;;;;;6277874;28;20228;-63
2023/04/10 06:59:33;;;;;;;7.60;6.83;;;21.40;51.10;;;;;;6277502;28;20242;-63
2023/04/10 07:02:36;;;;;;;8.03;7.33;;;22.20;50.00;;;;;;6277529;28;20567;-63
2023/04/10 07:05:39;;;;;;;8.10;7.37;;;23.10;46.40;;;;;;6277075;28;20235;-63
2023/04/10 07:08:45;;;;;;;7.97;7.27;;;23.20;44.00;;;;;;6277567;28;20227;-64
2023/04/10 07:11:48;;;;;;;7.23;6.63;;;23.60;42.50;;;;;;6277119;28;20238;-64
2023/04/10 07:14:54;;;;;;;8.53;7.70;;;24.10;41.20;;;;;;6277246;28;20231;-63
2023/04/10 07:17:57;;;;;;;8.33;7.63;;;24.30;40.20;;;;;;6277387;28;20242;-64
2023/04/10 07:21:01;;;;;;;9.50;8.70;;;25.60;39.20;;;;;;6276895;28;20241;-64
2023/04/10 07:24:06;;;;;;;8.80;7.90;;;26.60;37.10;;;;;;6277491;28;20658;-64
2023/04/10 07:27:09;;;;;;;8.57;7.80;;;27.30;34.60;;;;;;6276864;28;20231;-64
2023/04/10 07:30:12;;;;;;;8.43;7.73;;;28.40;32.50;;;;;;6276221;28;20262;-64
2023/04/10 07:33:15;;;;;;;8.20;7.50;;;28.80;30.10;;;;;;6272416;28;20253;-63
2023/04/10 07:36:19;;;;;;;7.13;6.53;;;29.30;29.10;;;;;;6276621;28;20415;-63
2023/04/10 07:39:23;;;;;;;7.63;7.03;;;30.00;28.20;;;;;;6276668;28;20234;-65
2023/04/10 07:42:26;;;;;;;7.60;7.00;;;30.50;26.70;;;;;;6276763;28;20242;-63
2023/04/10 07:45:30;;;;;;;7.83;7.23;;;31.10;26.40;;;;;;6276053;28;20575;-63
2023/04/10 07:48:33;;;;;;;8.48;7.80;;;32.10;25.50;;;;;;6276671;28;20227;-65
2023/04/10 07:51:36;;;;;;;8.20;7.50;;;32.70;23.90;;;;;;6276197;28;20250;-64
2023/04/10 07:54:40;;;;;;;8.10;7.50;;;33.50;23.10;;;;;;6276212;28;20241;-64
2023/04/10 07:57:43;;;;;;;7.63;7.03;;;34.10;22.30;;;;;;6276272;28;20231;-64
2023/04/10 08:00:47;;;;;;;8.25;7.65;;;34.40;21.20;;;;;;6287557;28;20217;-65
2023/04/10 08:03:50;;;;;;;7.82;7.13;;;34.90;20.10;;;;;;6281072;28;20280;-64
2023/04/10 08:06:54;;;;;;;7.53;6.85;;;35.40;19.60;;;;;;6274612;28;20429;-65
2023/04/10 08:09:58;;;;;;;8.05;7.45;;;35.90;18.80;;;;;;6274266;28;20697;-65
2023/04/10 08:13:01;;;;;;;8.30;7.50;;;36.50;18.00;;;;;;6274424;28;20242;-65
2023/04/10 08:16:05;;;;;;;7.50;6.90;;;36.80;17.90;;;;;;6275196;28;20250;-65
2023/04/10 08:19:08;;;;;;;7.45;6.85;;;37.00;17.20;;;;;;6275737;28;20242;-65
2023/04/10 08:22:12;;;;;;;6.97;6.47;;;37.20;16.70;;;;;;6275614;28;20290;-65
2023/04/10 08:25:16;;;;;;;7.18;6.63;;;37.60;16.10;;;;;;6275274;28;20238;-65
2023/04/10 08:28:20;;;;;;;6.93;6.22;;;37.90;15.50;;;;;;6275247;28;20241;-66
2023/04/10 08:31:24;;;;;;;6.72;6.22;;;37.50;14.20;;;;;;6275740;28;20215;-65
2023/04/10 08:34:27;;;;;;;6.53;6.03;;;37.50;14.70;;;;;;6275646;28;20307;-65
2023/04/10 08:37:31;;;;;;;6.55;6.05;;;38.30;13.80;;;;;;6275696;28;20522;-64
2023/04/10 08:40:38;;;;;;;5.70;5.30;;;39.30;13.60;;;;;;6275109;28;20195;-64
2023/04/10 08:43:42;;;;;;;6.07;5.57;;;39.40;12.40;;;;;;6275791;28;20505;-64
2023/04/10 08:46:45;;;;;;;6.97;6.47;;;39.70;12.90;;;;;;6275676;28;20594;-65
2023/04/10 08:49:54;;;;;;;6.80;6.38;;;40.40;12.60;;;;;;6274929;28;20719;-65
2023/04/10 08:53:05;;;;;;;6.65;6.20;;;41.20;11.90;;;;;;6276429;28;20246;-65
2023/04/10 08:56:13;;;;;;;6.47;6.07;;;40.40;12.00;;;;;;6279937;28;20234;-65
2023/04/10 08:59:17;;;;;;;6.82;6.32;;;39.30;12.30;;;;;;6278406;28;20238;-65
2023/04/10 09:02:22;;;;;;;6.47;5.97;;;39.70;12.20;;;;;;6275294;28;20254;-65
2023/04/10 09:05:27;;;;;;;6.93;6.40;;;40.30;11.80;;;;;;6274903;28;20234;-65
2023/04/10 09:08:30;;;;;;;5.70;5.30;;;40.50;12.20;;;;;;6275463;28;20541;-65
2023/04/10 09:11:59;;;;;;;6.72;6.22;;;41.30;12.20;;;;;;6274945;28;20231;-66
2023/04/10 09:15:04;;;;;;;6.40;6.00;;;42.90;11.50;;;;;;6275378;28;20239;-65
2023/04/10 09:18:07;;;;;;;6.13;5.63;;;43.10;10.50;;;;;;6278958;28;20772;-66
2023/04/10 09:21:12;;;;;;;5.65;5.20;;;43.20;10.40;;;;;;6276069;28;20531;-66
2023/04/10 09:24:15;;;;;;;6.95;6.40;;;43.30;10.50;;;;;;6280181;28;20230;-65
2023/04/10 09:27:34;;;;;;;7.18;6.68;;;43.60;10.20;;;;;;6292725;28;20231;-65
2023/04/10 09:30:40;;;;;;;6.25;5.85;;;44.00;10.10;;;;;;6286317;28;20227;-65
2023/04/10 09:33:43;;;;;;;6.50;6.05;;;41.70;10.40;;;;;;6278110;28;20234;-65
2023/04/10 09:36:54;;;;;;;7.00;6.50;;;41.60;10.70;;;;;;6276812;28;20321;-65
2023/04/10 09:39:58;;;;;;;6.13;5.72;;;41.30;10.50;;;;;;6275068;28;20238;-65
2023/04/10 09:43:17;;;;;;;6.88;6.38;;;39.80;11.70;;;;;;6266245;28;20231;-65
2023/04/10 09:46:27;;;;;;;6.25;5.85;;;37.70;12.80;;;;;;6274654;28;20249;-65
2023/04/10 09:49:46;;;;;;;7.38;6.88;;;34.80;14.10;;;;;;6251118;28;20248;-64
2023/04/10 09:52:57;;;;;;;6.60;6.10;;;34.20;14.50;;;;;;6274671;28;20219;-65
2023/04/10 09:56:01;;;;;;;7.85;7.15;;;33.50;14.90;;;;;;6279493;28;20237;-64
2023/04/10 09:59:07;;;;;;;8.18;7.57;;;31.90;15.30;;;;;;6279299;28;20236;-64
2023/04/10 10:02:13;;;;;;;7.47;6.87;;;30.10;16.60;;;;;;6279126;28;20226;-64
2023/04/10 10:05:16;;;;;;;7.10;6.57;;;27.90;18.50;;;;;;6278376;28;20567;-64
2023/04/10 10:08:20;;;;;;;7.37;6.77;;;27.00;19.20;;;;;;6279077;28;20692;-64
2023/04/10 10:11:25;;;;;;;7.17;6.57;;;26.00;20.00;;;;;;6278622;28;20651;-64
2023/04/10 10:14:32;;;;;;;7.43;6.83;;;22.50;22.90;;;;;;6278878;28;20239;-64
2023/04/10 10:17:42;;;;;;;6.00;5.50;;;21.20;24.40;;;;;;6278695;28;20228;-64
2023/04/10 10:20:46;;;;;;;6.30;5.80;;;20.30;24.70;;;;;;6278904;28;20223;-64
2023/04/10 10:23:52;;;;;;;5.40;4.90;;;19.60;26.20;;;;;;6278696;28;20287;-63
2023/04/10 10:26:57;;;;;;;5.60;5.17;;;19.30;27.30;;;;;;6278844;28;20223;-65
2023/04/10 10:30:02;;;;;;;5.70;5.20;;;19.80;27.80;;;;;;6278789;28;20577;-64
2023/04/10 10:33:18;;;;;;;5.63;5.13;;;20.20;27.30;;;;;;6278640;28;20232;-65
2023/04/10 10:36:23;;;;;;;5.90;5.40;;;20.40;26.70;;;;;;6271581;28;20228;-66
2023/04/10 10:39:34;;;;;;;6.67;6.07;;;20.90;27.00;;;;;;6277356;28;20250;-64
2023/04/10 10:42:45;;;;;;;6.50;5.90;;;21.10;27.00;;;;;;6278329;28;20235;-65
2023/04/10 10:45:56;;;;;;;6.70;6.20;;;21.10;27.20;;;;;;6273532;28;20231;-64
2023/04/10 10:49:00;;;;;;;6.97;6.40;;;21.10;26.90;;;;;;6278029;28;20236;-62
2023/04/10 10:52:04;;;;;;;6.60;6.00;;;20.80;26.10;;;;;;6277516;28;20558;-64
2023/04/10 10:55:37;;;;;;;6.30;5.77;;;20.20;26.70;;;;;;6277605;28;20321;-64
2023/04/10 10:58:47;;;;;;;6.00;5.50;;;19.90;27.00;;;;;;6277931;28;20223;-64
2023/04/10 11:02:15;;;;;;;7.07;6.37;;;19.90;27.10;;;;;;6277325;28;20254;-64
2023/04/10 11:05:49;;;;;;;7.03;6.40;;;19.70;27.70;;;;;;6276118;28;20242;-63
2023/04/10 11:08:53;;;;;;;6.90;6.23;;;19.60;27.90;;;;;;6275569;28;20231;-63
2023/04/10 11:11:58;;;;;;;11.63;9.73;;;19.50;28.40;;;;;;6275580;28;20239;-63
2023/04/10 11:15:03;;;;;;;16.40;10.53;;;19.60;29.10;;;;;;6275340;28;20231;-64
2023/04/10 11:18:08;;;;;;;17.80;12.53;;;19.00;30.00;;;;;;6276056;28;20227;-64
2023/04/10 11:21:12;;;;;;;37.13;32.30;;;18.80;30.40;;;;;;6275845;28;20231;-63
2023/04/10 11:24:16;;;;;;;24.97;20.20;;;18.00;31.00;;;;;;6277264;28;20691;-63
2023/04/10 11:27:51;;;;;;;25.33;18.83;;;17.80;32.10;;;;;;6276957;28;20231;-63
2023/04/10 11:30:55;;;;;;;12.83;11.60;;;17.60;31.90;;;;;;6277604;28;20493;-63
2023/04/10 11:34:04;;;;;;;27.97;24.70;;;17.50;32.20;;;;;;6280684;28;20478;-61
2023/04/10 11:37:07;;;;;;;30.87;25.33;;;17.40;32.40;;;;;;6278028;28;20470;-61
2023/04/10 11:40:11;;;;;;;10.63;9.70;;;17.50;32.70;;;;;;6277142;28;20485;-60
2023/04/10 11:43:14;;;;;;;24.00;21.40;;;17.50;32.70;;;;;;6276783;28;21001;-60
2023/04/10 11:46:18;;;;;;;13.60;12.30;;;17.50;32.70;;;;;;6276201;28;20958;-61
2023/04/10 11:49:24;;;;;;;27.50;19.90;;;17.60;32.40;;;;;;6276596;28;20489;-60
2023/04/10 11:52:27;;;;;;;27.43;23.93;;;17.50;32.60;;;;;;6276584;28;20488;-61
2023/04/10 11:55:38;;;;;;;29.63;24.60;;;17.50;33.00;;;;;;6276831;28;20748;-61
2023/04/10 11:58:41;;;;;;;16.20;13.43;;;17.50;33.00;;;;;;6277069;28;20457;-61
2023/04/10 12:01:45;;;;;;;13.67;12.30;;;17.20;33.60;;;;;;6276881;28;20458;-61
2023/04/10 12:04:58;;;;;;;14.90;13.40;;;17.90;33.50;;;;;;6275679;28;20466;-61
2023/04/10 12:08:01;;;;;;;10.73;9.80;;;18.60;32.70;;;;;;6276495;28;20659;-61
2023/04/10 12:11:05;;;;;;;8.40;7.60;;;18.60;32.70;;;;;;6276228;28;20238;-61
2023/04/10 12:14:08;;;;;;;9.50;8.70;;;18.70;32.60;;;;;;6275692;28;20258;-62
2023/04/10 12:17:12;;;;;;;10.03;9.03;;;19.00;31.50;;;;;;6275442;28;20231;-62
2023/04/10 12:20:17;;;;;;;8.70;7.80;;;19.10;31.10;;;;;;6275495;28;20242;-62
2023/04/10 12:23:20;;;;;;;8.70;8.00;;;19.40;31.10;;;;;;6275242;28;20231;-61
2023/04/10 12:26:24;;;;;;;8.83;8.07;;;19.40;30.90;;;;;;6275221;28;20663;-61
2023/04/10 12:29:28;;;;;;;7.77;7.10;;;19.30;31.00;;;;;;6275322;28;20227;-62
2023/04/10 12:32:32;;;;;;;8.23;7.43;;;19.30;31.00;;;;;;6274873;28;20310;-62
2023/04/10 12:35:41;;;;;;;7.53;6.93;;;19.40;31.00;;;;;;6274978;28;20571;-63
2023/04/10 12:38:44;;;;;;;8.77;8.07;;;19.50;30.00;;;;;;6269844;28;20342;-61
2023/04/10 12:41:47;;;;;;;9.43;8.40;;;19.60;30.00;;;;;;6250205;28;20239;-62
2023/04/10 12:44:53;;;;;;;8.43;7.63;;;19.30;30.50;;;;;;6252895;28;20219;-62
2023/04/10 12:47:56;;;;;;;8.70;7.90;;;18.90;31.20;;;;;;6274846;28;20223;-62
2023/04/10 12:51:01;;;;;;;8.27;7.37;;;18.70;30.70;;;;;;6284998;28;20219;-61
2023/04/10 12:54:04;;;;;;;8.83;8.03;;;18.50;31.10;;;;;;6274525;28;20227;-62
2023/04/10 12:57:07;;;;;;;8.37;7.67;;;18.80;30.70;;;;;;6286915;28;20219;-61
2023/04/10 13:00:13;;;;;;;8.13;7.33;;;19.00;31.10;;;;;;6285268;28;20246;-61
2023/04/10 13:03:16;;;;;;;8.57;7.87;;;19.20;30.40;;;;;;6286947;28;20219;-61
2023/04/10 13:06:21;;;;;;;8.20;7.60;;;19.70;29.90;;;;;;6284754;28;20250;-61
2023/04/10 13:09:24;;;;;;;7.80;7.10;;;20.10;29.50;;;;;;6285081;28;20705;-61
2023/04/10 13:12:29;;;;;;;7.87;7.07;;;20.10;29.40;;;;;;6267758;28;20224;-61
2023/04/10 13:15:33;;;;;;;8.93;8.13;;;20.10;29.00;;;;;;6249856;28;20565;-61
2023/04/10 13:18:36;;;;;;;8.47;7.77;;;20.10;28.80;;;;;;6249552;28;20224;-61
2023/04/10 13:21:41;;;;;;;8.33;7.50;;;20.00;29.10;;;;;;6249652;28;20235;-61
2023/04/10 13:24:44;;;;;;;8.30;7.50;;;20.10;29.00;;;;;;6249340;28;20684;-61
2023/04/10 13:27:47;;;;;;;8.30;7.60;;;20.10;29.40;;;;;;6249091;28;20255;-62
2023/04/10 13:30:51;;;;;;;10.53;9.63;;;19.80;29.70;;;;;;6249030;28;20224;-61
2023/04/10 13:33:54;;;;;;;9.40;7.57;;;19.50;30.40;;;;;;6249384;28;20240;-62
2023/04/10 13:36:58;;;;;;;8.60;7.70;;;19.10;30.60;;;;;;6249152;28;20561;-61
2023/04/10 13:40:01;;;;;;;9.10;8.20;;;18.60;31.10;;;;;;6265331;28;20302;-61
2023/04/10 13:43:07;;;;;;;8.23;7.43;;;18.40;31.40;;;;;;6274185;28;20227;-61
2023/04/10 13:46:13;;;;;;;7.17;6.50;;;18.30;31.50;;;;;;6273850;28;20546;-62
2023/04/10 13:49:16;;;;;;;9.70;8.17;;;18.30;31.70;;;;;;6273881;28;20306;-61
2023/04/10 13:52:21;;;;;;;9.10;8.27;;;17.70;31.20;;;;;;6273562;28;20235;-60
2023/04/10 13:55:24;;;;;;;8.00;7.20;;;17.70;31.60;;;;;;6274184;28;20246;-60
2023/04/10 13:58:30;;;;;;;7.57;6.87;;;17.80;31.40;;;;;;6273652;28;20231;-60
2023/04/10 14:01:34;;;;;;;7.00;6.40;;;17.90;31.90;;;;;;6274255;28;20184;-61
2023/04/10 14:04:37;;;;;;;6.90;6.30;;;17.80;31.70;;;;;;6273579;28;20251;-61
2023/04/10 14:07:41;;;;;;;8.77;8.03;;;17.50;31.90;;;;;;6273442;28;20442;-61
2023/04/10 14:10:49;;;;;;;8.90;8.10;;;17.40;32.50;;;;;;6273439;28;20473;-61
2023/04/10 14:13:52;;;;;;;8.83;7.97;;;17.40;32.90;;;;;;6273777;28;20462;-61
2023/04/10 14:16:55;;;;;;;7.63;6.90;;;17.40;32.20;;;;;;6273964;28;20473;-61
2023/04/10 14:19:59;;;;;;;7.47;6.80;;;17.10;31.90;;;;;;6274158;28;20462;-61
2023/04/10 14:23:03;;;;;;;8.10;7.30;;;17.10;32.30;;;;;;6273801;28;20466;-61
2023/04/10 14:26:07;;;;;;;7.40;6.77;;;17.20;32.40;;;;;;6273782;28;20474;-61
2023/04/10 14:29:10;;;;;;;9.30;8.30;;;17.30;32.50;;;;;;6273423;28;20473;-60
2023/04/10 14:32:13;;;;;;;8.47;7.63;;;17.40;32.50;;;;;;6273664;28;20477;-60
2023/04/10 14:35:17;;;;;;;7.83;7.13;;;17.30;32.30;;;;;;6276101;28;20552;-61
2023/04/10 14:38:21;;;;;;;8.37;7.60;;;17.40;33.00;;;;;;6285961;28;20518;-60
2023/04/10 14:41:24;;;;;;;9.17;8.20;;;17.20;33.50;;;;;;6290373;28;20477;-60
2023/04/10 14:44:29;;;;;;;9.07;8.17;;;17.20;34.40;;;;;;6288915;28;20231;-61
2023/04/10 14:47:32;;;;;;;9.73;8.80;;;17.30;33.80;;;;;;6286270;28;20468;-61
2023/04/10 14:50:35;;;;;;;8.80;8.10;;;17.00;34.20;;;;;;6288303;28;20976;-61
2023/04/10 14:53:40;;;;;;;9.10;8.20;;;16.60;34.80;;;;;;6301389;28;20818;-63
2023/04/10 14:56:43;;;;;;;9.20;8.30;;;16.50;37.70;;;;;;6302981;28;20461;-63
2023/04/10 14:59:46;;;;;;;7.67;6.97;;;16.70;37.20;;;;;;6302984;28;20469;-63
2023/04/10 15:02:49;;;;;;;7.60;6.90;;;16.50;35.10;;;;;;6293139;28;20484;-63
2023/04/10 15:05:59;;;;;;;9.07;7.20;;;16.70;35.50;;;;;;6284989;28;20472;-63
2023/04/10 15:09:04;;;;;;;8.10;7.40;;;16.80;34.90;;;;;;6302561;28;20969;-63
2023/04/10 15:12:07;;;;;;;8.37;7.57;;;16.90;34.60;;;;;;6297102;28;20474;-63
2023/04/10 15:15:11;;;;;;;7.43;6.73;;;16.70;34.40;;;;;;6276773;28;20477;-64
2023/04/10 15:18:14;;;;;;;7.70;6.90;;;16.80;34.40;;;;;;6277324;28;20474;-64
2023/04/10 15:21:19;;;;;;;7.53;6.73;;;16.60;34.90;;;;;;6276512;28;20470;-63
2023/04/10 15:24:23;;;;;;;8.67;7.87;;;16.40;35.00;;;;;;6276757;28;20485;-63
2023/04/10 15:27:26;;;;;;;7.87;7.17;;;16.30;34.90;;;;;;6276935;28;20492;-64
2023/04/10 15:30:30;;;;;;;8.27;7.30;;;16.40;35.00;;;;;;6276942;28;20804;-64
2023/04/10 15:33:35;;;;;;;7.70;6.33;;;16.40;35.00;;;;;;6276859;28;20520;-63
2023/04/10 15:36:38;;;;;;;7.90;7.10;;;16.30;34.90;;;;;;6276847;28;20481;-62
2023/04/10 15:39:42;;;;;;;7.30;6.70;;;16.30;35.10;;;;;;6276367;28;20478;-63
2023/04/10 15:42:46;;;;;;;7.57;6.80;;;16.30;34.90;;;;;;6275984;28;21000;-63
2023/04/10 15:45:49;;;;;;;7.53;6.83;;;16.30;35.40;;;;;;6276145;28;20485;-64
2023/04/10 15:48:52;;;;;;;8.47;7.67;;;16.30;35.10;;;;;;6276615;28;20493;-63
2023/04/10 15:51:55;;;;;;;6.40;5.90;;;16.10;35.00;;;;;;6278415;28;20465;-62
2023/04/10 15:54:59;;;;;;;8.47;7.53;;;16.30;35.10;;;;;;6276528;28;20504;-62
2023/04/10 15:58:03;;;;;;;7.23;6.63;;;16.30;34.80;;;;;;6275423;28;20474;-62
2023/04/10 16:01:09;;;;;;;8.47;7.67;;;16.50;34.90;;;;;;6274587;28;20470;-62
2023/04/10 16:04:12;;;;;;;8.13;7.33;;;16.50;34.60;;;;;;6282795;28;20467;-63
2023/04/10 16:07:17;;;;;;;7.20;6.50;;;16.50;34.50;;;;;;6289287;28;20481;-63